createdAt,value
2022-12-04T00:01:08.974Z,1.27
2022-12-04T00:03:36.496Z,1.05
2022-12-04T00:06:13.844Z,1.29
2022-12-04T00:08:40.831Z,2.23
2022-12-04T00:11:09.009Z,2.42
2022-12-04T00:13:36.128Z,1.19
2022-12-04T00:16:07.877Z,1.46
2022-12-04T00:18:35.393Z,2.21
2022-12-04T00:21:06.452Z,0.33
2022-12-04T00:23:33.941Z,0.82
2022-12-04T00:26:02.633Z,1.73
2022-12-04T00:28:29.089Z,1.78
2022-12-04T00:30:55.908Z,1.51
2022-12-04T00:33:22.860Z,0.84
2022-12-04T00:35:56.114Z,1.11
2022-12-04T00:38:22.575Z,0.37
2022-12-04T00:40:50.859Z,1.41
2022-12-04T00:43:17.638Z,1.67
2022-12-04T00:45:44.094Z,1.35
2022-12-04T00:48:10.709Z,1.68
2022-12-04T00:50:37.560Z,1.42
2022-12-04T00:53:04.292Z,1.99
2022-12-04T00:55:30.768Z,1.87
2022-12-04T00:57:59.879Z,1.98
2022-12-04T01:00:26.708Z,1.47
2022-12-04T01:02:53.136Z,2.42
2022-12-04T01:05:19.781Z,1.43
2022-12-04T01:07:46.240Z,2.15
2022-12-04T01:10:13.460Z,1.97
2022-12-04T01:12:39.889Z,1.81
2022-12-04T01:15:06.821Z,1.94
2022-12-04T01:17:33.265Z,1.46
2022-12-04T01:19:59.697Z,1.49
2022-12-04T01:22:26.126Z,1.93
2022-12-04T01:24:56.402Z,1.99
2022-12-04T01:27:23.755Z,1.15
2022-12-04T01:29:50.330Z,1.29
2022-12-04T01:32:16.921Z,1.82
2022-12-04T01:34:43.470Z,0.93
2022-12-04T01:37:09.898Z,1.09
2022-12-04T01:39:37.295Z,1.12
2022-12-04T01:42:05.033Z,1.76
2022-12-04T01:44:32.370Z,0.75
2022-12-04T01:47:00.949Z,0.98
2022-12-04T01:49:41.318Z,2.09
2022-12-04T01:52:15.942Z,2.02
2022-12-04T01:54:46.102Z,0.84
2022-12-04T01:57:18.599Z,1.99
2022-12-04T01:59:55.902Z,1.12
2022-12-04T02:02:27.504Z,1.31
2022-12-04T02:04:54.421Z,1.38
2022-12-04T02:07:20.887Z,1.11
2022-12-04T02:09:53.904Z,2.16
2022-12-04T02:12:36.760Z,2.00
2022-12-04T02:15:21.270Z,1.01
2022-12-04T02:17:59.376Z,1.50
2022-12-04T02:20:56.760Z,1.52
2022-12-04T02:23:48.198Z,1.27
2022-12-04T02:26:29.495Z,1.08
2022-12-04T02:29:08.901Z,1.97
2022-12-04T02:31:51.981Z,1.14
2022-12-04T02:34:45.790Z,0.63
2022-12-04T02:37:30.470Z,1.29
2022-12-04T02:40:16.848Z,2.12
2022-12-04T02:43:03.471Z,0.68
2022-12-04T02:45:36.695Z,0.83
2022-12-04T02:48:07.599Z,1.67
2022-12-04T02:50:39.392Z,1.52
2022-12-04T02:53:10.432Z,1.46
2022-12-04T02:55:49.427Z,1.26
2022-12-04T02:58:21.517Z,2.13
2022-12-04T03:00:49.313Z,1.36
2022-12-04T03:03:27.665Z,2.23
2022-12-04T03:06:05.569Z,2.39
2022-12-04T03:08:40.348Z,1.81
2022-12-04T03:11:06.847Z,1.66
2022-12-04T03:13:42.966Z,1.68
2022-12-04T03:16:33.403Z,2.41
2022-12-04T03:19:12.064Z,1.47
2022-12-04T03:21:46.658Z,2.13
2022-12-04T03:24:15.218Z,1.44
2022-12-04T03:26:55.680Z,0.76
2022-12-04T03:29:34.291Z,0.88
2022-12-04T03:32:25.197Z,0.91
2022-12-04T03:35:05.398Z,2.25
2022-12-04T03:38:00.643Z,1.01
2022-12-04T03:40:30.984Z,1.34
2022-12-04T03:43:05.875Z,1.18
2022-12-04T03:45:47.288Z,1.54
2022-12-04T03:48:25.813Z,2.12
2022-12-04T03:51:07.436Z,2.59
2022-12-04T03:53:41.693Z,2.02
2022-12-04T03:56:15.863Z,2.33
2022-12-04T03:58:48.714Z,1.26
2022-12-04T04:01:20.104Z,2.68
2022-12-04T04:03:51.024Z,1.48
2022-12-04T04:06:30.729Z,1.01
2022-12-04T04:09:01.983Z,2.01
2022-12-04T04:11:38.778Z,2.47
2022-12-04T04:14:40.254Z,2.07
2022-12-04T04:17:34.936Z,1.65
2022-12-04T04:20:27.606Z,1.59
2022-12-04T04:23:16.933Z,1.85
2022-12-04T04:25:45.595Z,2.31
2022-12-04T04:28:31.866Z,2.16
2022-12-04T04:31:30.666Z,2.85
2022-12-04T04:34:02.950Z,3.06
2022-12-04T04:36:51.119Z,2.64
2022-12-04T04:39:55.115Z,2.85
2022-12-04T04:42:29.833Z,2.35
2022-12-04T04:45:12.363Z,2.69
2022-12-04T04:47:47.460Z,2.24
2022-12-04T04:50:15.808Z,2.67
2022-12-04T04:52:46.695Z,2.85
2022-12-04T04:55:16.154Z,2.65
2022-12-04T04:57:43.143Z,2.69
2022-12-04T05:00:15.902Z,2.78
2022-12-04T05:02:43.080Z,2.29
2022-12-04T05:05:09.877Z,2.61
2022-12-04T05:07:36.459Z,2.89
2022-12-04T05:10:03.327Z,2.75
2022-12-04T05:12:29.748Z,2.33
2022-12-04T05:14:56.152Z,2.86
2022-12-04T05:17:22.746Z,2.78
2022-12-04T05:19:56.728Z,2.75
2022-12-04T05:22:32.074Z,3.14
2022-12-04T05:24:59.171Z,2.11
2022-12-04T05:27:26.948Z,2.08
2022-12-04T05:29:55.333Z,1.98
2022-12-04T05:32:23.804Z,1.45
2022-12-04T05:34:51.763Z,1.76
2022-12-04T05:37:18.945Z,2.07
2022-12-04T05:39:45.939Z,1.80
2022-12-04T05:42:12.942Z,1.48
2022-12-04T05:44:39.470Z,1.84
2022-12-04T05:47:06.424Z,2.35
2022-12-04T05:49:34.072Z,2.46
2022-12-04T05:52:02.033Z,1.59
2022-12-04T05:54:28.458Z,1.15
2022-12-04T05:56:54.910Z,1.51
2022-12-04T05:59:21.931Z,1.47
2022-12-04T06:01:48.482Z,1.06
2022-12-04T06:04:14.950Z,1.59
2022-12-04T06:06:41.456Z,1.70
2022-12-04T06:09:08.902Z,1.49
2022-12-04T06:11:38.626Z,1.97
2022-12-04T06:14:08.425Z,1.65
2022-12-04T06:16:38.820Z,1.57
2022-12-04T06:19:08.148Z,1.52
2022-12-04T06:21:37.176Z,1.42
2022-12-04T06:24:04.453Z,1.89
2022-12-04T06:26:30.959Z,1.54
2022-12-04T06:28:59.033Z,1.33
2022-12-04T06:31:27.532Z,1.88
2022-12-04T06:33:56.084Z,1.19
2022-12-04T06:36:23.490Z,1.42
2022-12-04T06:38:51.773Z,1.62
2022-12-04T06:41:20.405Z,1.96
2022-12-04T06:43:46.939Z,0.86
2022-12-04T06:46:16.168Z,1.60
2022-12-04T06:48:43.111Z,1.37
2022-12-04T06:51:21.198Z,2.42
2022-12-04T06:53:48.268Z,2.81
2022-12-04T06:56:18.139Z,1.80
2022-12-04T06:58:49.750Z,2.49
2022-12-04T07:01:20.743Z,2.57
2022-12-04T07:03:51.617Z,2.46
2022-12-04T07:06:27.080Z,1.51
2022-12-04T07:08:57.772Z,2.06
2022-12-04T07:11:24.381Z,1.61
2022-12-04T07:13:51.512Z,2.45
2022-12-04T07:16:21.393Z,2.78
2022-12-04T07:18:50.394Z,1.81
2022-12-04T07:21:19.622Z,2.41
2022-12-04T07:23:53.203Z,2.60
2022-12-04T07:26:20.720Z,2.58
2022-12-04T07:28:47.701Z,2.35
2022-12-04T07:31:17.088Z,1.77
2022-12-04T07:33:44.517Z,1.92
2022-12-04T07:36:17.568Z,2.47
2022-12-04T07:38:44.142Z,2.61
2022-12-04T07:41:12.708Z,1.49
2022-12-04T07:43:39.837Z,1.52
2022-12-04T07:46:13.619Z,1.53
2022-12-04T07:48:40.730Z,1.25
2022-12-04T07:51:09.902Z,1.81
2022-12-04T07:53:36.871Z,0.90
2022-12-04T07:56:07.383Z,1.25
2022-12-04T07:58:34.579Z,2.09
2022-12-04T08:01:09.858Z,0.91
2022-12-04T08:03:37.564Z,1.09
2022-12-04T08:06:07.375Z,0.94
2022-12-04T08:08:34.933Z,1.29
2022-12-04T08:11:05.976Z,1.27
2022-12-04T08:13:32.428Z,1.73
2022-12-04T08:16:02.343Z,1.00
2022-12-04T08:18:28.848Z,1.04
2022-12-04T08:20:55.278Z,1.10
2022-12-04T08:23:21.776Z,1.54
2022-12-04T08:25:48.237Z,1.44
2022-12-04T08:28:14.640Z,1.40
2022-12-04T08:30:41.087Z,1.02
2022-12-04T08:33:07.542Z,0.91
2022-12-04T08:35:34.097Z,1.02
2022-12-04T08:38:03.462Z,2.19
2022-12-04T08:40:29.884Z,1.58
2022-12-04T08:42:56.295Z,2.00
2022-12-04T08:45:22.747Z,1.95
2022-12-04T08:47:52.451Z,2.58
2022-12-04T08:50:19.281Z,2.24
2022-12-04T08:52:45.726Z,2.55
2022-12-04T08:55:12.141Z,2.91
2022-12-04T08:57:38.547Z,3.14
2022-12-04T09:00:05.699Z,3.08
2022-12-04T09:02:32.111Z,2.58
2022-12-04T09:04:58.624Z,2.63
2022-12-04T09:07:25.093Z,2.44
2022-12-04T09:09:51.486Z,2.83
2022-12-04T09:12:17.997Z,2.96
2022-12-04T09:14:44.462Z,2.45
2022-12-04T09:17:10.933Z,2.63
2022-12-04T09:19:37.460Z,2.82
2022-12-04T09:22:03.890Z,2.17
2022-12-04T09:24:30.931Z,1.94
2022-12-04T09:26:57.525Z,1.71
2022-12-04T09:29:25.603Z,2.71
2022-12-04T09:31:52.062Z,2.50
2022-12-04T09:34:18.504Z,2.50
2022-12-04T09:36:45.086Z,2.48
2022-12-04T09:39:11.580Z,2.28
2022-12-04T09:42:01.922Z,2.21
2022-12-04T09:44:44.061Z,1.71
2022-12-04T09:47:22.538Z,2.53
2022-12-04T09:50:09.179Z,2.33
2022-12-04T09:52:38.581Z,2.64
2022-12-04T09:55:12.210Z,1.86
2022-12-04T09:57:43.657Z,2.20
2022-12-04T10:00:16.100Z,2.86
2022-12-04T10:02:49.173Z,2.73
2022-12-04T10:05:37.665Z,2.22
2022-12-04T10:08:25.115Z,3.12
2022-12-04T10:11:06.421Z,2.39
2022-12-04T10:13:43.335Z,2.58
2022-12-04T10:16:22.056Z,2.63
2022-12-04T10:19:21.351Z,2.57
2022-12-04T10:22:03.722Z,2.59
2022-12-04T10:24:44.991Z,1.73
2022-12-04T10:27:25.484Z,2.52
2022-12-04T10:30:29.743Z,2.87
2022-12-04T10:33:32.253Z,2.00
2022-12-04T10:35:59.319Z,2.06
2022-12-04T10:38:37.912Z,2.86
2022-12-04T10:41:22.439Z,2.81
2022-12-04T10:43:50.120Z,2.02
2022-12-04T10:46:28.835Z,2.53
2022-12-04T10:49:01.507Z,2.60
2022-12-04T10:51:35.494Z,2.61
2022-12-04T10:54:01.969Z,2.41
2022-12-04T10:56:28.361Z,2.45
2022-12-04T10:59:03.332Z,1.47
2022-12-04T11:01:32.352Z,1.71
2022-12-04T11:04:07.668Z,1.56
2022-12-04T11:06:35.446Z,2.54
2022-12-04T11:09:03.755Z,1.62
2022-12-04T11:11:33.115Z,2.04
2022-12-04T11:14:03.704Z,2.18
2022-12-04T11:16:40.307Z,1.83
2022-12-04T11:19:24.857Z,1.83
2022-12-04T11:21:54.505Z,1.86
2022-12-04T11:24:23.081Z,1.99
2022-12-04T11:26:50.629Z,1.98
2022-12-04T11:29:20.360Z,2.23
2022-12-04T11:31:55.345Z,1.50
2022-12-04T11:34:27.231Z,1.45
2022-12-04T11:36:57.852Z,2.61
2022-12-04T11:39:40.651Z,1.72
2022-12-04T11:42:13.053Z,1.47
2022-12-04T11:44:40.439Z,2.44
2022-12-04T11:47:17.240Z,3.28
2022-12-04T11:49:44.105Z,1.90
2022-12-04T11:52:32.087Z,1.71
2022-12-04T11:55:43.326Z,1.30
2022-12-04T11:58:30.957Z,2.22
2022-12-04T12:01:34.545Z,2.61
2022-12-04T12:04:18.981Z,1.47
2022-12-04T12:07:07.688Z,2.39
2022-12-04T12:10:03.463Z,2.25
2022-12-04T12:12:49.595Z,2.57
2022-12-04T12:15:50.193Z,2.34
2022-12-04T12:18:29.789Z,1.99
2022-12-04T12:21:10.338Z,2.93
2022-12-04T12:24:01.175Z,2.80
2022-12-04T12:26:40.303Z,3.10
2022-12-04T12:29:28.533Z,2.63
2022-12-04T12:32:20.151Z,1.77
2022-12-04T12:34:47.561Z,2.80
2022-12-04T12:37:23.893Z,2.89
2022-12-04T12:39:56.117Z,3.01
2022-12-04T12:42:28.726Z,2.37
2022-12-04T12:45:24.440Z,1.95
2022-12-04T12:47:56.450Z,3.06
2022-12-04T12:50:32.050Z,2.46
2022-12-04T12:53:03.434Z,3.11
2022-12-04T12:55:47.292Z,2.81
2022-12-04T12:58:42.913Z,3.04
2022-12-04T13:01:19.702Z,2.27
2022-12-04T13:03:49.208Z,2.60
2022-12-04T13:06:27.175Z,3.37
2022-12-04T13:09:02.595Z,2.68
2022-12-04T13:11:30.790Z,3.66
2022-12-04T13:14:05.146Z,2.80
2022-12-04T13:16:34.886Z,2.53
2022-12-04T13:19:18.588Z,2.56
2022-12-04T13:22:15.213Z,2.91
2022-12-04T13:24:55.355Z,2.50
2022-12-04T13:27:59.282Z,1.88
2022-12-04T13:30:52.049Z,2.35
2022-12-04T13:33:58.939Z,3.30
2022-12-04T13:36:31.099Z,2.22
2022-12-04T13:39:09.687Z,2.65
2022-12-04T13:41:38.907Z,2.25
2022-12-04T13:44:18.171Z,1.98
2022-12-04T13:46:59.414Z,2.53
2022-12-04T13:49:28.898Z,2.45
2022-12-04T13:51:57.050Z,2.12
2022-12-04T13:54:35.628Z,1.79
2022-12-04T13:57:22.223Z,2.36
2022-12-04T13:59:49.549Z,2.50
2022-12-04T14:02:28.036Z,2.01
2022-12-04T14:05:10.258Z,2.17
2022-12-04T14:07:42.651Z,2.18
2022-12-04T14:10:15.131Z,1.92
2022-12-04T14:12:49.891Z,1.78
2022-12-04T14:15:25.732Z,2.04
2022-12-04T14:18:04.594Z,2.59
2022-12-04T14:20:33.634Z,1.65
2022-12-04T14:23:22.496Z,2.06
2022-12-04T14:25:51.149Z,1.85
2022-12-04T14:28:37.323Z,2.48
2022-12-04T14:31:33.149Z,2.33
2022-12-04T14:34:08.548Z,2.45
2022-12-04T14:36:41.084Z,1.63
2022-12-04T14:39:26.079Z,1.84
2022-12-04T14:42:03.739Z,2.45
2022-12-04T14:44:31.891Z,1.61
2022-12-04T14:47:15.176Z,2.95
2022-12-04T14:49:57.825Z,1.55
2022-12-04T14:52:31.455Z,1.96
2022-12-04T14:55:28.815Z,2.37
2022-12-04T14:58:29.095Z,2.65
2022-12-04T15:00:58.411Z,2.98
2022-12-04T15:03:26.612Z,2.82
2022-12-04T15:06:02.681Z,3.29
2022-12-04T15:08:29.246Z,2.47
2022-12-04T15:11:14.436Z,1.84
2022-12-04T15:13:41.375Z,3.10
2022-12-04T15:16:17.720Z,1.67
2022-12-04T15:19:00.894Z,2.59
2022-12-04T15:21:38.780Z,2.22
2022-12-04T15:24:23.255Z,2.88
2022-12-04T15:26:52.913Z,3.04
2022-12-04T15:29:27.400Z,3.06
2022-12-04T15:31:57.851Z,3.53
2022-12-04T15:34:48.070Z,3.57
2022-12-04T15:37:22.786Z,2.33
2022-12-04T15:39:52.464Z,2.88
2022-12-04T15:42:27.389Z,2.96
2022-12-04T15:45:00.692Z,2.91
2022-12-04T15:47:33.122Z,2.83
2022-12-04T15:50:17.853Z,3.30
2022-12-04T15:52:58.520Z,3.65
2022-12-04T15:55:27.948Z,3.54
2022-12-04T15:57:57.738Z,3.39
2022-12-04T16:00:34.206Z,3.39
2022-12-04T16:03:01.026Z,3.30
2022-12-04T16:05:32.738Z,3.32
2022-12-04T16:08:02.980Z,3.38
2022-12-04T16:10:35.270Z,3.69
2022-12-04T16:13:04.245Z,3.31
2022-12-04T16:15:39.858Z,3.48
2022-12-04T16:18:09.602Z,3.68
2022-12-04T16:20:37.513Z,3.34
2022-12-04T16:23:04.812Z,3.39
2022-12-04T16:25:31.740Z,3.21
2022-12-04T16:27:59.685Z,3.48
2022-12-04T16:30:28.116Z,3.07
2022-12-04T16:32:54.657Z,3.17
2022-12-04T16:35:21.578Z,3.64
2022-12-04T16:37:48.067Z,3.73
2022-12-04T16:40:14.948Z,2.63
2022-12-04T16:42:42.914Z,2.83
2022-12-04T16:45:24.331Z,3.44
2022-12-04T16:47:50.837Z,3.35
2022-12-04T16:50:17.301Z,3.88
2022-12-04T16:52:43.799Z,3.52
2022-12-04T16:55:39.707Z,2.53
2022-12-04T16:58:06.394Z,3.36
2022-12-04T17:00:32.883Z,3.67
2022-12-04T17:02:59.543Z,2.04
2022-12-04T17:05:29.081Z,2.26
2022-12-04T17:07:55.916Z,2.54
2022-12-04T17:10:24.229Z,3.69
2022-12-04T17:12:54.032Z,4.19
2022-12-04T17:15:20.614Z,3.82
2022-12-04T17:17:47.474Z,2.99
2022-12-04T17:20:19.455Z,2.62
2022-12-04T17:22:45.922Z,3.37
2022-12-04T17:25:12.438Z,3.46
2022-12-04T17:27:39.338Z,3.53
2022-12-04T17:30:07.577Z,3.76
2022-12-04T17:32:37.353Z,3.42
2022-12-04T17:35:05.673Z,2.69
2022-12-04T17:37:33.401Z,3.62
2022-12-04T17:39:59.826Z,2.36
2022-12-04T17:42:26.566Z,3.22
2022-12-04T17:44:53.064Z,2.13
2022-12-04T17:47:19.631Z,3.22
2022-12-04T17:49:46.069Z,2.56
2022-12-04T17:52:12.615Z,2.72
2022-12-04T17:54:39.116Z,2.99
2022-12-04T17:57:05.518Z,2.76
2022-12-04T17:59:31.949Z,2.79
2022-12-04T18:01:58.404Z,3.78
2022-12-04T18:04:25.013Z,2.90
2022-12-04T18:06:52.619Z,2.48
2022-12-04T18:09:19.183Z,3.27
2022-12-04T18:11:47.683Z,2.74
2022-12-04T18:14:17.626Z,2.97
2022-12-04T18:16:52.849Z,3.41
2022-12-04T18:19:26.887Z,2.69
2022-12-04T18:21:56.887Z,3.54
2022-12-04T18:24:24.947Z,3.42
2022-12-04T18:26:51.769Z,3.16
2022-12-04T18:29:22.079Z,2.51
2022-12-04T18:31:48.864Z,2.19
2022-12-04T18:34:15.735Z,2.95
2022-12-04T18:36:42.259Z,2.64
2022-12-04T18:39:14.223Z,3.19
2022-12-04T18:41:41.196Z,2.71
2022-12-04T18:44:08.133Z,2.60
2022-12-04T18:46:34.706Z,3.06
2022-12-04T18:49:01.726Z,1.92
2022-12-04T18:51:34.361Z,2.37
2022-12-04T18:54:06.949Z,2.74
2022-12-04T18:56:35.551Z,2.55
2022-12-04T18:59:14.719Z,2.66
2022-12-04T19:01:42.511Z,2.76
2022-12-04T19:04:11.007Z,3.45
2022-12-04T19:06:38.715Z,3.16
2022-12-04T19:09:08.344Z,2.93
2022-12-04T19:11:35.503Z,3.34
2022-12-04T19:14:06.605Z,2.88
2022-12-04T19:16:36.986Z,2.56
2022-12-04T19:19:03.527Z,2.86
2022-12-04T19:21:30.087Z,2.84
2022-12-04T19:23:59.778Z,2.34
2022-12-04T19:26:28.289Z,3.63
2022-12-04T19:28:55.566Z,3.19
2022-12-04T19:31:25.443Z,2.71
2022-12-04T19:33:54.930Z,2.87
2022-12-04T19:36:21.467Z,2.53
2022-12-04T19:38:47.985Z,2.97
2022-12-04T19:41:18.536Z,2.99
2022-12-04T19:43:50.615Z,2.48
2022-12-04T19:46:21.296Z,3.38
2022-12-04T19:48:49.641Z,2.68
2022-12-04T19:51:19.193Z,2.78
2022-12-04T19:53:46.915Z,2.72
2022-12-04T19:56:16.466Z,3.81
2022-12-04T19:58:43.476Z,2.94
2022-12-04T20:01:16.208Z,3.58
2022-12-04T20:03:43.030Z,4.06
2022-12-04T20:06:12.515Z,2.90
2022-12-04T20:08:39.056Z,3.91
2022-12-04T20:11:15.634Z,3.54
2022-12-04T20:13:42.720Z,2.63
2022-12-04T20:16:11.579Z,2.63
2022-12-04T20:18:39.906Z,2.64
2022-12-04T20:21:10.961Z,3.73
2022-12-04T20:23:38.829Z,3.69
2022-12-04T20:26:07.322Z,3.49
2022-12-04T20:28:34.443Z,3.19
2022-12-04T20:31:01.127Z,4.07
2022-12-04T20:33:27.647Z,3.28
2022-12-04T20:35:55.414Z,3.43
2022-12-04T20:38:21.844Z,3.68
2022-12-04T20:40:48.357Z,3.98
2022-12-04T20:43:14.784Z,4.21
2022-12-04T20:45:41.269Z,4.10
2022-12-04T20:48:07.818Z,3.98
2022-12-04T20:50:34.249Z,3.28
2022-12-04T20:53:00.739Z,3.36
2022-12-04T20:55:27.159Z,3.69
2022-12-04T20:57:53.616Z,4.02
2022-12-04T21:00:20.141Z,3.26
2022-12-04T21:02:46.642Z,3.73
2022-12-04T21:05:13.193Z,3.50
2022-12-04T21:07:39.677Z,4.03
2022-12-04T21:10:06.979Z,2.99
2022-12-04T21:12:52.197Z,3.41
2022-12-04T21:15:37.145Z,3.87
2022-12-04T21:18:03.847Z,3.64
2022-12-04T21:22:55.475Z,4.34
2022-12-04T21:25:21.964Z,3.97
2022-12-04T21:27:48.445Z,3.11
2022-12-04T21:30:14.966Z,2.93
2022-12-04T21:32:41.384Z,3.10
2022-12-04T21:35:08.162Z,3.17
2022-12-04T21:37:34.925Z,3.78
2022-12-04T21:40:01.669Z,2.98
2022-12-04T21:42:31.139Z,2.55
2022-12-04T21:45:01.724Z,3.27
2022-12-04T21:47:29.092Z,3.18
2022-12-04T21:49:56.232Z,3.60
2022-12-04T21:52:22.977Z,3.14
2022-12-04T21:54:51.326Z,3.65
2022-12-04T21:57:18.034Z,4.33
2022-12-04T21:59:44.723Z,3.79
2022-12-04T22:02:13.005Z,4.04
2022-12-04T22:04:40.128Z,3.40
2022-12-04T22:07:06.735Z,3.55
2022-12-04T22:09:33.354Z,4.34
2022-12-04T22:11:59.785Z,3.30
2022-12-04T22:14:26.608Z,3.62
2022-12-04T22:16:54.209Z,4.08
2022-12-04T22:19:20.799Z,3.86
2022-12-04T22:21:47.486Z,3.42
2022-12-04T22:24:13.897Z,3.44
2022-12-04T22:26:40.369Z,3.70
2022-12-04T22:29:26.985Z,2.99
2022-12-04T22:31:54.002Z,3.11
2022-12-04T22:34:20.651Z,4.07
2022-12-04T22:36:48.953Z,3.89
2022-12-04T22:39:15.418Z,3.08
2022-12-04T22:41:41.950Z,3.68
2022-12-04T22:44:08.374Z,4.14
2022-12-04T22:46:34.914Z,3.74
2022-12-04T22:49:01.480Z,4.01
2022-12-04T22:51:28.673Z,3.76
2022-12-04T22:53:57.830Z,3.24
2022-12-04T22:56:27.317Z,3.32
2022-12-04T22:58:54.637Z,3.19
2022-12-04T23:01:30.104Z,2.89
2022-12-04T23:03:56.838Z,3.13
2022-12-04T23:06:26.136Z,3.09
2022-12-04T23:09:01.753Z,3.65
2022-12-04T23:11:28.962Z,3.26
2022-12-04T23:14:03.507Z,2.90
2022-12-04T23:16:32.288Z,3.99
2022-12-04T23:18:59.381Z,3.24
2022-12-04T23:21:26.826Z,3.39
2022-12-04T23:23:54.140Z,3.68
2022-12-04T23:26:24.201Z,3.11
2022-12-04T23:28:50.738Z,4.23
2022-12-04T23:31:17.733Z,4.21
2022-12-04T23:33:44.473Z,4.00
2022-12-04T23:36:13.102Z,3.60
2022-12-04T23:38:41.201Z,4.14
2022-12-04T23:41:11.467Z,3.07
2022-12-04T23:43:38.979Z,3.91
2022-12-04T23:46:11.001Z,3.78
2022-12-04T23:48:38.935Z,3.18
2022-12-04T23:51:05.775Z,3.71
2022-12-04T23:53:32.233Z,3.46
2022-12-04T23:56:10.847Z,3.79
2022-12-04T23:58:37.927Z,3.04
